Time;durP1;ratioP1;P1;durP2;ratioP2;P2;SDS_P1;SDS_P2;PMS_P1;PMS_P2;Temp;Humidity;BMP_temperature;BMP_pressure;BME280_temperature;BME280_humidity;BME280_pressure;Samples;Min_cycle;Max_cycle;Signal;HPM_P1;HPM_P2
2022/12/19 00:01:03;;;;;;;92.60;39.77;;;-7.90;99.90;-9.20;102052;;;;573078;250;24101;-80
2022/12/19 00:03:31;;;;;;;91.93;40.40;;;-7.90;99.90;-9.20;102058;;;;571670;249;24135;-81
2022/12/19 00:06:08;;;;;;;101.47;40.17;;;-7.90;99.90;-9.20;102060;;;;570821;251;24143;-81
2022/12/19 00:08:33;;;;;;;101.10;40.23;;;-7.80;99.90;-9.20;102065;;;;581448;246;24067;-82
2022/12/19 00:11:01;;;;;;;91.13;39.60;;;-7.80;99.90;-9.20;102057;;;;583006;246;24094;-82
2022/12/19 00:13:28;;;;;;;92.37;38.87;;;-7.80;99.90;-9.20;102051;;;;574113;249;25183;-80
2022/12/19 00:16:02;;;;;;;91.23;39.13;;;-7.80;99.90;-9.20;102049;;;;574462;250;24093;-82
2022/12/19 00:18:30;;;;;;;101.47;41.13;;;-7.80;99.90;-9.20;102050;;;;573989;250;24108;-82
2022/12/19 00:20:58;;;;;;;98.97;38.97;;;-7.80;99.90;-9.20;102041;;;;574421;250;24112;-81
2022/12/19 00:23:25;;;;;;;93.83;40.57;;;-7.80;99.90;-9.20;102040;;;;574450;250;24106;-81
2022/12/19 00:25:54;;;;;;;103.23;40.33;;;-7.80;99.90;-9.20;102046;;;;574289;250;24165;-80
2022/12/19 00:28:22;;;;;;;94.43;39.50;;;-7.90;99.90;-9.20;102050;;;;574113;250;24144;-80
2022/12/19 00:30:51;;;;;;;94.00;41.70;;;-7.90;99.90;-9.20;102041;;;;573989;250;24129;-80
2022/12/19 00:33:19;;;;;;;93.80;39.87;;;-7.90;99.90;-9.20;102045;;;;574464;250;24135;-79
2022/12/19 00:35:46;;;;;;;92.87;42.03;;;-7.90;99.90;-9.20;102043;;;;575181;248;24141;-80
2022/12/19 00:38:14;;;;;;;90.03;38.93;;;-7.90;99.90;-9.20;102032;;;;575645;249;24141;-79
2022/12/19 00:40:42;;;;;;;93.73;39.33;;;-7.90;99.90;-9.20;102030;;;;574955;249;24131;-81
2022/12/19 00:43:10;;;;;;;93.77;38.47;;;-7.90;99.90;-9.20;102033;;;;575196;250;24130;-80
2022/12/19 00:45:38;;;;;;;93.60;40.03;;;-7.90;99.90;-9.20;102033;;;;574976;250;24147;-79
2022/12/19 00:48:07;;;;;;;89.77;39.07;;;-7.90;99.90;-9.20;102020;;;;574988;250;24113;-80
2022/12/19 00:50:35;;;;;;;93.43;37.47;;;-7.90;99.90;-9.30;102012;;;;574980;250;24132;-81
2022/12/19 00:53:03;;;;;;;96.17;40.30;;;-7.90;99.90;-9.20;102026;;;;574844;250;24157;-81
2022/12/19 00:55:31;;;;;;;91.73;39.67;;;-7.90;99.90;-9.30;102018;;;;574694;250;24120;-81
2022/12/19 00:57:59;;;;;;;89.73;39.40;;;-7.90;99.90;-9.30;102006;;;;574351;250;24107;-81
2022/12/19 01:00:27;;;;;;;88.80;38.97;;;-7.90;99.90;-9.30;102005;;;;574304;250;24117;-81
2022/12/19 01:02:55;;;;;;;93.57;40.60;;;-7.90;99.90;-9.30;101999;;;;574441;250;24153;-80
2022/12/19 01:05:23;;;;;;;92.63;40.33;;;-8.00;99.90;-9.30;102004;;;;574315;250;24144;-81
2022/12/19 01:07:51;;;;;;;94.97;39.63;;;-8.00;99.90;-9.30;101993;;;;574621;250;24138;-81
2022/12/19 01:10:19;;;;;;;100.85;43.45;;;-8.00;99.90;-9.30;101993;;;;569306;250;45808;-81
2022/12/19 01:12:47;;;;;;;91.30;40.57;;;-8.00;99.90;-9.30;101999;;;;574007;250;24104;-82
2022/12/19 01:15:16;;;;;;;97.07;41.73;;;-7.90;99.90;-9.30;101996;;;;574412;250;24124;-80
2022/12/19 01:17:44;;;;;;;97.63;43.23;;;-8.00;99.90;-9.30;102005;;;;574346;250;24108;-81
2022/12/19 01:20:12;;;;;;;93.10;41.67;;;-7.90;99.90;-9.30;101996;;;;574164;250;24120;-81
2022/12/19 01:22:39;;;;;;;98.00;42.17;;;-7.90;99.90;-9.30;101985;;;;573919;250;24119;-81
2022/12/19 01:25:07;;;;;;;94.57;42.53;;;-8.00;99.90;-9.40;101977;;;;574383;250;24128;-81
2022/12/19 01:27:39;;;;;;;95.27;42.80;;;-8.00;99.90;-9.40;101973;;;;574083;250;24154;-80
2022/12/19 01:30:03;;;;;;;96.17;41.13;;;-8.00;99.90;-9.40;101981;;;;573807;250;24154;-81
2022/12/19 01:32:32;;;;;;;96.50;40.87;;;-8.10;99.90;-9.40;101983;;;;581774;247;24071;-79
2022/12/19 01:35:00;;;;;;;87.17;39.53;;;-8.10;99.90;-9.50;101985;;;;581965;246;24073;-80
2022/12/19 01:37:28;;;;;;;104.00;42.30;;;-8.10;99.90;-9.40;101975;;;;583381;246;24110;-81
2022/12/19 01:39:56;;;;;;;87.07;39.03;;;-8.10;99.90;-9.50;101977;;;;574457;249;24096;-81
2022/12/19 01:42:25;;;;;;;96.70;40.27;;;-8.10;99.90;-9.40;101965;;;;574459;250;24133;-81
2022/12/19 01:45:05;;;;;;;92.83;38.47;;;-8.10;99.90;-9.40;101975;;;;574453;250;24123;-81
2022/12/19 01:47:33;;;;;;;90.40;40.37;;;-8.10;99.90;-9.40;101977;;;;573353;248;24115;-80
2022/12/19 01:50:01;;;;;;;102.10;41.67;;;-8.10;99.90;-9.40;101952;;;;575437;249;24115;-81
2022/12/19 01:52:32;;;;;;;93.20;40.63;;;-8.10;99.90;-9.40;101963;;;;575278;249;24114;-81
2022/12/19 01:54:57;;;;;;;102.15;43.00;;;-8.00;99.90;-9.40;101946;;;;569893;250;35337;-81
2022/12/19 01:57:25;;;;;;;97.93;40.23;;;-8.10;99.90;-9.40;101956;;;;575024;250;24122;-80
2022/12/19 01:59:53;;;;;;;97.07;41.93;;;-8.00;99.90;-9.40;101957;;;;575039;250;24107;-80
2022/12/19 02:02:32;;;;;;;103.10;43.43;;;-8.00;99.90;-9.40;101948;;;;574809;250;24092;-81
2022/12/19 02:05:03;;;;;;;100.63;41.70;;;-8.00;99.90;-9.40;101951;;;;574775;250;24131;-80
2022/12/19 02:07:31;;;;;;;106.43;42.73;;;-8.00;99.90;-9.40;101939;;;;574698;250;24164;-81
2022/12/19 02:10:02;;;;;;;97.23;42.53;;;-8.00;99.90;-9.40;101950;;;;574313;250;24111;-82
2022/12/19 02:12:27;;;;;;;98.73;42.27;;;-8.00;99.90;-9.40;101952;;;;574402;250;24131;-81
2022/12/19 02:14:55;;;;;;;98.40;41.20;;;-8.10;99.90;-9.40;101945;;;;573969;250;24158;-81
2022/12/19 02:18:02;;;;;;;108.70;46.70;;;-8.10;99.90;-9.40;101949;;;;569523;250;46258;-81
2022/12/19 02:20:54;;;;;;;98.97;41.40;;;-8.00;99.90;-9.40;101933;;;;574945;250;24112;-82
2022/12/19 02:24:13;;;;;;;105.17;42.67;;;-8.00;99.90;-9.40;101921;;;;574559;250;24159;-83
2022/12/19 02:27:36;;;;;;;95.53;40.63;;;-8.10;99.90;-9.40;101922;;;;566674;251;35511;-80
2022/12/19 02:30:10;;;;;;;92.37;39.27;;;-8.00;99.90;-9.40;101929;;;;577939;248;24109;-81
2022/12/19 02:32:53;;;;;;;93.73;42.53;;;-8.00;99.90;-9.40;101930;;;;571645;250;24106;-81
2022/12/19 02:35:32;;;;;;;97.83;41.37;;;-8.00;99.90;-9.40;101920;;;;577496;246;35218;-81
2022/12/19 02:38:16;;;;;;;97.30;40.83;;;-8.00;99.90;-9.40;101931;;;;574480;249;24150;-80
2022/12/19 02:40:52;;;;;;;93.93;40.70;;;-8.00;99.90;-9.40;101925;;;;574040;250;24178;-81
2022/12/19 02:43:23;;;;;;;92.70;41.40;;;-8.00;99.90;-9.40;101930;;;;558889;250;24108;-80
2022/12/19 02:45:48;;;;;;;81.90;38.90;;;-8.00;99.90;-9.40;101917;;;;574108;250;24108;-80
2022/12/19 02:48:16;;;;;;;93.00;38.73;;;-8.00;99.90;-9.40;101913;;;;574521;250;24125;-81
2022/12/19 02:50:44;;;;;;;93.97;41.03;;;-8.00;99.90;-9.40;101918;;;;582151;247;24105;-81
2022/12/19 02:53:14;;;;;;;80.77;38.30;;;-8.10;99.90;-9.40;101921;;;;582113;247;24078;-83
2022/12/19 02:55:50;;;;;;;91.17;40.50;;;-8.00;99.90;-9.40;101906;;;;571189;251;24151;-83
2022/12/19 02:58:42;;;;;;;86.90;39.87;;;-8.00;99.90;-9.40;101912;;;;576329;245;24146;-81
2022/12/19 03:01:25;;;;;;;87.67;39.40;;;-8.00;99.90;-9.40;101901;;;;584452;246;24086;-81
2022/12/19 03:04:01;;;;;;;87.47;39.40;;;-8.10;99.90;-9.40;101892;;;;577945;245;35139;-83
2022/12/19 03:06:34;;;;;;;83.63;37.47;;;-8.10;99.90;-9.50;101880;;;;583043;246;24101;-83
2022/12/19 03:09:02;;;;;;;85.27;38.10;;;-8.10;99.90;-9.50;101873;;;;568859;250;24229;-81
2022/12/19 03:11:33;;;;;;;81.23;36.77;;;-8.10;99.90;-9.50;101876;;;;570905;251;24111;-82
2022/12/19 03:14:03;;;;;;;82.30;38.47;;;-8.10;99.90;-9.50;101871;;;;582707;246;24074;-81
2022/12/19 03:16:31;;;;;;;84.70;39.93;;;-8.20;99.90;-9.50;101872;;;;571220;251;24136;-81
2022/12/19 03:18:59;;;;;;;87.63;37.67;;;-8.20;99.90;-9.60;101874;;;;582278;246;24160;-82
2022/12/19 03:21:39;;;;;;;87.87;38.33;;;-8.20;99.90;-9.60;101874;;;;582433;247;24094;-81
2022/12/19 03:24:07;;;;;;;78.63;38.40;;;-8.20;99.90;-9.60;101876;;;;571762;251;24100;-83
2022/12/19 03:26:37;;;;;;;74.90;36.67;;;-8.20;99.90;-9.60;101879;;;;571970;251;24157;-80
2022/12/19 03:29:11;;;;;;;82.10;36.20;;;-8.30;99.90;-9.70;101871;;;;571974;251;24105;-81
2022/12/19 03:31:39;;;;;;;77.47;35.07;;;-8.30;99.90;-9.70;101862;;;;571461;251;24101;-80
2022/12/19 03:34:25;;;;;;;83.23;37.47;;;-8.30;99.90;-9.70;101869;;;;571774;251;24129;-81
2022/12/19 03:36:52;;;;;;;79.30;36.73;;;-8.30;99.90;-9.70;101874;;;;570826;251;24185;-82
2022/12/19 03:39:20;;;;;;;80.37;36.80;;;-8.30;99.90;-9.70;101858;;;;581648;247;24073;-80
2022/12/19 03:44:34;;;;;;;73.97;37.87;;;-8.30;99.90;-9.70;101852;;;;574108;250;24108;-80
2022/12/19 03:47:11;;;;;;;73.57;35.77;;;-8.30;99.90;-9.70;101845;;;;574351;250;24166;-81
2022/12/19 03:49:40;;;;;;;80.87;34.03;;;-8.30;99.90;-9.70;101852;;;;573866;250;24106;-82
2022/12/19 03:52:31;;;;;;;77.47;36.97;;;-8.30;99.90;-9.70;101856;;;;574441;250;24095;-80
2022/12/19 03:55:07;;;;;;;67.60;33.83;;;-8.30;99.90;-9.70;101857;;;;574468;250;24103;-81
2022/12/19 03:57:41;;;;;;;75.47;35.07;;;-8.40;99.90;-9.70;101854;;;;574154;250;24094;-81
2022/12/19 04:00:12;;;;;;;75.70;34.07;;;-8.40;99.90;-9.70;101845;;;;572810;250;24204;-81
2022/12/19 04:02:41;;;;;;;72.77;32.63;;;-8.30;99.90;-9.70;101850;;;;574532;250;24144;-81
2022/12/19 04:05:09;;;;;;;67.07;33.50;;;-8.40;99.90;-9.70;101849;;;;574394;250;24134;-81
2022/12/19 04:07:41;;;;;;;67.57;33.47;;;-8.40;99.90;-9.70;101850;;;;574383;250;24102;-82
2022/12/19 04:10:08;;;;;;;67.77;33.60;;;-8.40;99.90;-9.70;101842;;;;574510;248;24148;-82
2022/12/19 04:12:39;;;;;;;68.93;33.03;;;-8.40;99.90;-9.70;101844;;;;575620;249;24119;-81
2022/12/19 04:15:16;;;;;;;61.10;32.80;;;-8.40;99.90;-9.70;101853;;;;574885;249;24153;-81
2022/12/19 04:17:46;;;;;;;64.90;32.83;;;-8.30;99.90;-9.70;101859;;;;573137;250;24113;-81
2022/12/19 04:20:16;;;;;;;59.23;31.57;;;-8.30;99.90;-9.70;101848;;;;574282;250;24190;-82
2022/12/19 04:23:08;;;;;;;59.70;30.87;;;-8.30;99.90;-9.60;101835;;;;574173;250;24127;-80
2022/12/19 04:25:41;;;;;;;61.37;31.07;;;-8.30;99.90;-9.60;101846;;;;571071;250;24102;-82
2022/12/19 04:28:13;;;;;;;59.13;31.50;;;-8.30;99.90;-9.60;101824;;;;574145;250;24161;-81
2022/12/19 04:30:40;;;;;;;59.77;31.67;;;-8.30;99.90;-9.60;101830;;;;574166;250;24118;-81
2022/12/19 04:33:05;;;;;;;57.50;29.70;;;-8.20;99.90;-9.60;101828;;;;574282;250;24099;-82
2022/12/19 04:35:33;;;;;;;59.10;30.97;;;-8.20;99.90;-9.60;101822;;;;574728;250;24130;-81
2022/12/19 04:38:01;;;;;;;59.57;31.03;;;-8.20;99.90;-9.60;101828;;;;574194;250;24116;-81
2022/12/19 04:40:33;;;;;;;56.70;30.17;;;-8.30;99.90;-9.60;101823;;;;574415;250;24121;-82
2022/12/19 04:42:58;;;;;;;61.57;32.07;;;-8.20;99.90;-9.50;101826;;;;574399;250;24114;-80
2022/12/19 04:45:26;;;;;;;58.90;29.30;;;-8.20;99.90;-9.50;101827;;;;574667;250;24161;-79
2022/12/19 04:47:54;;;;;;;55.83;30.47;;;-8.20;99.90;-9.50;101828;;;;563592;250;24080;-80
2022/12/19 04:50:22;;;;;;;58.73;30.77;;;-8.20;99.90;-9.50;101823;;;;563576;250;24110;-82
2022/12/19 04:52:50;;;;;;;58.37;30.90;;;-8.10;99.90;-9.50;101823;;;;563634;250;24079;-82
2022/12/19 04:55:17;;;;;;;61.67;31.63;;;-8.10;99.90;-9.50;101811;;;;563620;250;24118;-82
2022/12/19 04:57:45;;;;;;;57.53;30.53;;;-8.10;99.90;-9.40;101817;;;;563291;250;24153;-80
2022/12/19 05:00:13;;;;;;;65.03;32.10;;;-8.10;99.90;-9.40;101816;;;;563637;250;24109;-81
2022/12/19 05:02:42;;;;;;;64.60;32.43;;;-8.00;99.90;-9.40;101825;;;;567337;250;24102;-80
2022/12/19 05:05:09;;;;;;;59.33;30.87;;;-8.00;99.90;-9.40;101820;;;;563616;250;24108;-80
2022/12/19 05:07:37;;;;;;;64.70;31.10;;;-8.00;99.90;-9.40;101806;;;;564881;250;24146;-81
2022/12/19 05:10:05;;;;;;;64.40;33.08;;;-8.00;99.90;-9.40;101807;;;;568409;250;35302;-81
2022/12/19 05:12:33;;;;;;;65.83;31.37;;;-8.00;99.90;-9.40;101818;;;;564711;250;24083;-81
2022/12/19 05:15:01;;;;;;;63.17;33.17;;;-8.00;99.90;-9.30;101812;;;;563585;250;24157;-81
2022/12/19 05:17:29;;;;;;;65.40;32.60;;;-8.00;99.90;-9.30;101804;;;;573410;250;24090;-81
2022/12/19 05:19:57;;;;;;;66.40;32.13;;;-7.90;99.90;-9.30;101810;;;;563604;250;24118;-81
2022/12/19 05:22:29;;;;;;;71.57;35.13;;;-8.00;99.90;-9.30;101816;;;;559775;249;35353;-81
2022/12/19 05:24:57;;;;;;;66.30;32.93;;;-7.90;99.90;-9.40;101802;;;;564598;249;25234;-83
2022/12/19 05:27:25;;;;;;;67.97;34.03;;;-7.90;99.90;-9.30;101815;;;;564311;250;24132;-82
2022/12/19 05:29:53;;;;;;;66.47;33.53;;;-8.00;99.90;-9.30;101793;;;;564342;250;24113;-82
2022/12/19 05:32:21;;;;;;;63.30;33.17;;;-7.90;99.90;-9.30;101810;;;;564130;250;24094;-81
2022/12/19 05:34:48;;;;;;;68.33;35.20;;;-7.90;99.90;-9.30;101810;;;;573963;250;24113;-81
2022/12/19 05:37:16;;;;;;;72.97;35.73;;;-7.90;99.90;-9.30;101796;;;;564135;250;24111;-80
2022/12/19 05:39:44;;;;;;;68.80;35.80;;;-7.90;99.90;-9.30;101789;;;;563621;250;24097;-81
2022/12/19 05:42:12;;;;;;;74.60;36.25;;;-8.00;99.90;-9.30;101797;;;;558553;250;35331;-81
2022/12/19 05:44:40;;;;;;;69.93;34.00;;;-8.00;99.90;-9.30;101790;;;;563588;250;24079;-82
2022/12/19 05:47:08;;;;;;;73.43;37.07;;;-7.90;99.90;-9.30;101778;;;;563487;250;24140;-82
2022/12/19 05:49:39;;;;;;;70.97;37.13;;;-8.00;99.90;-9.30;101778;;;;563541;250;24078;-81
2022/12/19 05:52:04;;;;;;;79.10;38.13;;;-7.90;99.90;-9.30;101777;;;;563573;250;24111;-81
2022/12/19 05:54:32;;;;;;;76.57;37.40;;;-7.90;99.90;-9.30;101779;;;;563439;250;24160;-82
2022/12/19 05:57:00;;;;;;;68.40;38.30;;;-8.00;99.90;-9.30;101791;;;;563483;250;24079;-81
2022/12/19 05:59:28;;;;;;;78.00;38.03;;;-8.00;99.90;-9.40;101774;;;;563267;250;24164;-82
2022/12/19 06:01:56;;;;;;;77.47;38.97;;;-8.00;99.90;-9.40;101753;;;;563698;250;24076;-81
2022/12/19 06:04:24;;;;;;;80.87;39.93;;;-8.00;99.90;-9.40;101755;;;;563539;250;24099;-82
2022/12/19 06:06:52;;;;;;;79.37;39.33;;;-8.00;99.90;-9.40;101745;;;;563707;250;24092;-82
2022/12/19 06:09:20;;;;;;;78.50;38.60;;;-8.10;99.90;-9.40;101748;;;;563312;250;24161;-82
2022/12/19 06:11:48;;;;;;;87.73;39.37;;;-8.10;99.90;-9.40;101753;;;;563249;250;24216;-82
2022/12/19 06:14:16;;;;;;;74.87;38.70;;;-8.00;99.90;-9.40;101745;;;;563365;250;25508;-82
2022/12/19 06:16:44;;;;;;;77.57;39.83;;;-8.10;99.90;-9.40;101749;;;;563281;250;24111;-83
2022/12/19 06:19:12;;;;;;;72.03;35.97;;;-8.10;99.90;-9.40;101740;;;;563421;250;24152;-83
2022/12/19 06:21:40;;;;;;;72.37;38.50;;;-8.10;99.90;-9.40;101739;;;;563520;250;24124;-82
2022/12/19 06:24:08;;;;;;;72.63;36.60;;;-8.10;99.90;-9.40;101737;;;;563715;250;24105;-81
2022/12/19 06:26:36;;;;;;;73.30;37.10;;;-8.10;99.90;-9.40;101734;;;;563355;250;24157;-81
2022/12/19 06:29:03;;;;;;;72.97;36.50;;;-8.10;99.90;-9.40;101736;;;;563236;250;24138;-82
2022/12/19 06:31:31;;;;;;;73.00;37.40;;;-8.10;99.90;-9.40;101745;;;;563306;250;24120;-82
2022/12/19 06:33:59;;;;;;;72.93;37.93;;;-8.00;99.90;-9.40;101752;;;;564540;249;24137;-82
2022/12/19 06:36:31;;;;;;;72.07;36.83;;;-8.00;99.90;-9.40;101737;;;;562798;249;27313;-82
2022/12/19 06:38:57;;;;;;;67.33;36.70;;;-8.00;99.90;-9.40;101732;;;;565048;250;24095;-81
2022/12/19 06:44:11;;;;;;;68.30;35.30;;;-8.00;99.90;-9.30;101728;;;;565386;250;24091;-82
2022/12/19 06:46:39;;;;;;;68.57;35.23;;;-8.00;99.90;-9.30;101728;;;;573935;250;24167;-82
2022/12/19 06:49:07;;;;;;;67.47;35.73;;;-8.00;99.90;-9.30;101731;;;;562558;250;24086;-82
2022/12/19 06:51:35;;;;;;;66.03;35.20;;;-7.90;99.90;-9.20;101732;;;;563941;250;24092;-81
2022/12/19 06:54:06;;;;;;;63.57;34.03;;;-7.90;99.90;-9.30;101725;;;;573656;250;24100;-80
2022/12/19 06:56:36;;;;;;;62.17;34.73;;;-7.90;99.90;-9.30;101724;;;;573258;250;24135;-81
2022/12/19 06:59:08;;;;;;;68.07;35.70;;;-7.90;99.90;-9.30;101732;;;;568225;250;24132;-80
2022/12/19 07:01:56;;;;;;;66.62;35.28;;;-8.00;99.90;-9.20;101716;;;;554858;250;35298;-80
2022/12/19 07:04:30;;;;;;;64.90;32.57;;;-7.90;99.90;-9.20;101723;;;;564941;250;24095;-81
2022/12/19 07:06:58;;;;;;;64.23;32.33;;;-7.90;99.90;-9.20;101724;;;;559165;250;35331;-80
2022/12/19 07:09:29;;;;;;;55.93;29.77;;;-7.90;99.90;-9.20;101733;;;;564568;250;24113;-81
2022/12/19 07:11:54;;;;;;;62.27;32.37;;;-7.80;99.90;-9.20;101730;;;;572584;250;24118;-81
2022/12/19 07:14:24;;;;;;;61.03;33.30;;;-7.80;99.90;-9.20;101725;;;;563368;250;24141;-80
2022/12/19 07:16:49;;;;;;;57.93;33.60;;;-7.80;99.90;-9.10;101715;;;;561616;250;24165;-82
2022/12/19 07:19:17;;;;;;;59.33;31.47;;;-7.80;99.90;-9.10;101706;;;;567509;250;24105;-81
2022/12/19 07:21:49;;;;;;;57.70;31.90;;;-7.70;99.90;-9.10;101711;;;;567721;250;24201;-81
2022/12/19 07:24:18;;;;;;;54.87;30.77;;;-7.70;99.90;-9.00;101703;;;;564296;250;24170;-82
2022/12/19 07:26:43;;;;;;;53.87;30.47;;;-7.60;99.90;-9.00;101697;;;;564459;250;24123;-82
2022/12/19 07:29:15;;;;;;;56.97;30.53;;;-7.60;99.90;-8.90;101683;;;;564388;250;24125;-82
2022/12/19 07:31:44;;;;;;;59.17;31.70;;;-7.60;99.90;-8.90;101692;;;;572957;250;24145;-81
2022/12/19 07:34:09;;;;;;;55.80;31.40;;;-7.50;99.90;-8.80;101688;;;;561764;250;24104;-80
2022/12/19 07:36:41;;;;;;;53.97;30.07;;;-7.50;99.90;-8.80;101696;;;;563207;250;24152;-82
2022/12/19 07:39:05;;;;;;;60.00;31.53;;;-7.50;99.90;-8.70;101700;;;;573571;247;24219;-73
2022/12/19 07:41:33;;;;;;;56.42;30.62;;;-7.40;99.90;-8.60;101690;;;;561044;248;35462;-78
2022/12/19 07:44:01;;;;;;;60.30;30.10;;;-7.30;99.90;-8.60;101693;;;;573561;245;24095;-72
2022/12/19 07:46:29;;;;;;;55.57;29.63;;;-7.30;99.90;-8.50;101680;;;;588392;243;24084;-71
2022/12/19 07:49:00;;;;;;;52.93;30.47;;;-7.20;99.90;-8.50;101679;;;;581235;246;24074;-71
2022/12/19 07:51:29;;;;;;;50.60;29.83;;;-7.10;99.90;-8.40;101682;;;;579176;246;25111;-72
2022/12/19 07:53:57;;;;;;;56.07;30.50;;;-7.10;99.90;-8.40;101678;;;;570592;248;24121;-79
2022/12/19 07:56:24;;;;;;;54.63;32.37;;;-7.10;99.90;-8.30;101674;;;;570526;248;24064;-75
2022/12/19 07:58:52;;;;;;;58.40;30.57;;;-7.00;99.90;-8.20;101664;;;;570249;248;24085;-76
2022/12/19 08:01:20;;;;;;;52.50;31.67;;;-6.90;99.90;-8.20;101666;;;;570113;248;24050;-72
2022/12/19 08:03:48;;;;;;;53.87;30.40;;;-6.90;99.90;-8.20;101670;;;;570254;248;24072;-77
2022/12/19 08:06:16;;;;;;;50.77;30.17;;;-6.80;99.90;-8.10;101669;;;;569820;248;24156;-74
2022/12/19 08:08:44;;;;;;;51.23;29.63;;;-6.80;99.90;-8.00;101666;;;;576693;244;24111;-73
2022/12/19 08:11:12;;;;;;;51.40;29.80;;;-6.70;99.90;-7.90;101663;;;;561835;252;24133;-72
2022/12/19 08:13:40;;;;;;;51.63;30.60;;;-6.60;99.90;-7.90;101665;;;;561800;249;24094;-72
2022/12/19 08:16:08;;;;;;;49.00;29.67;;;-6.60;99.90;-7.80;101662;;;;561827;252;24097;-72
2022/12/19 08:18:39;;;;;;;46.83;28.40;;;-6.50;99.90;-7.80;101657;;;;565756;251;24064;-72
2022/12/19 08:21:04;;;;;;;48.60;29.17;;;-6.50;99.90;-7.70;101654;;;;566402;251;24077;-71
2022/12/19 08:23:32;;;;;;;52.27;29.27;;;-6.40;99.90;-7.60;101648;;;;576904;246;24142;-72
2022/12/19 08:26:00;;;;;;;49.77;29.10;;;-6.30;99.90;-7.60;101632;;;;581102;246;24075;-72
2022/12/19 08:28:27;;;;;;;49.37;27.87;;;-6.30;99.90;-7.50;101638;;;;570747;246;24111;-71
2022/12/19 08:30:55;;;;;;;49.87;28.87;;;-6.30;99.90;-7.50;101644;;;;577519;246;24080;-73
2022/12/19 08:33:23;;;;;;;45.77;26.57;;;-6.20;99.90;-7.40;101630;;;;572792;246;24094;-73
2022/12/19 08:35:51;;;;;;;48.60;27.83;;;-6.10;99.90;-7.30;101626;;;;577298;246;24139;-72
2022/12/19 08:38:20;;;;;;;48.33;26.77;;;-6.00;99.90;-7.30;101616;;;;577565;246;24086;-72
2022/12/19 08:40:52;;;;;;;42.53;26.77;;;-6.00;99.90;-7.20;101615;;;;577517;246;24080;-74
2022/12/19 08:43:19;;;;;;;43.00;25.77;;;-6.00;99.90;-7.10;101626;;;;570136;246;24085;-72
2022/12/19 08:45:53;;;;;;;45.90;27.87;;;-5.90;99.90;-7.10;101627;;;;577458;246;24070;-72
2022/12/19 08:48:18;;;;;;;40.07;24.20;;;-5.80;99.90;-7.00;101613;;;;577028;246;24093;-72
2022/12/19 08:50:58;;;;;;;46.03;28.60;;;-5.70;99.90;-6.90;101596;;;;576984;246;24080;-71
2022/12/19 08:53:23;;;;;;;50.57;27.70;;;-5.70;99.90;-6.90;101591;;;;569593;246;24125;-72
2022/12/19 08:55:59;;;;;;;43.93;25.70;;;-5.60;99.90;-6.80;101590;;;;581557;245;24112;-72
2022/12/19 08:58:31;;;;;;;44.60;25.27;;;-5.40;99.90;-6.70;101584;;;;573659;246;24120;-71
2022/12/19 09:01:03;;;;;;;45.33;24.73;;;-5.40;99.90;-6.60;101573;;;;572937;246;24105;-72
2022/12/19 09:03:30;;;;;;;46.20;26.23;;;-5.40;99.90;-6.60;101565;;;;577081;246;24182;-72
2022/12/19 09:06:01;;;;;;;43.50;23.90;;;-5.30;99.90;-6.50;101564;;;;570420;246;24094;-71
2022/12/19 09:08:29;;;;;;;43.13;26.33;;;-5.30;99.90;-6.50;101560;;;;575861;242;35348;-71
2022/12/19 09:11:00;;;;;;;43.95;29.20;;;-5.30;99.90;-6.40;101552;;;;565815;246;35311;-71
2022/12/19 09:13:28;;;;;;;45.00;24.77;;;-5.20;99.90;-6.40;101545;;;;581215;246;24109;-71
2022/12/19 09:16:00;;;;;;;37.53;22.73;;;-5.00;99.90;-6.30;101545;;;;572438;246;24101;-73
2022/12/19 09:18:28;;;;;;;39.63;22.27;;;-5.00;99.90;-6.20;101553;;;;572465;246;24103;-72
2022/12/19 09:20:56;;;;;;;39.57;24.00;;;-5.00;99.90;-6.20;101547;;;;570253;246;24086;-72
2022/12/19 09:23:27;;;;;;;40.93;25.43;;;-5.00;99.90;-6.20;101548;;;;576898;246;25162;-72
2022/12/19 09:25:52;;;;;;;41.33;25.40;;;-5.00;99.90;-6.20;101536;;;;571500;246;24132;-74
2022/12/19 09:28:19;;;;;;;40.07;22.17;;;-4.90;99.90;-6.20;101535;;;;572298;246;24138;-72
2022/12/19 09:30:56;;;;;;;37.47;23.97;;;-4.90;99.90;-6.10;101522;;;;575551;246;24125;-71
2022/12/19 09:33:21;;;;;;;34.83;20.30;;;-4.90;99.90;-6.10;101512;;;;571727;246;24122;-71
2022/12/19 09:35:50;;;;;;;38.53;22.73;;;-4.80;99.90;-6.00;101506;;;;576806;246;24134;-71
2022/12/19 09:38:18;;;;;;;37.87;20.63;;;-4.70;99.90;-6.00;101505;;;;580686;246;24149;-71
2022/12/19 09:41:00;;;;;;;39.60;22.83;;;-4.70;99.90;-5.90;101501;;;;580753;246;24149;-71
2022/12/19 09:43:36;;;;;;;39.47;20.47;;;-4.70;99.90;-6.00;101504;;;;572387;246;24085;-71
2022/12/19 09:46:10;;;;;;;41.13;23.83;;;-4.70;99.90;-6.00;101512;;;;571922;246;24141;-71
2022/12/19 09:48:39;;;;;;;39.30;23.90;;;-4.70;99.90;-5.90;101506;;;;575770;246;24084;-72
2022/12/19 09:51:10;;;;;;;35.70;20.47;;;-4.70;99.90;-6.00;101497;;;;577027;246;24141;-71
2022/12/19 09:53:58;;;;;;;39.60;21.13;;;-4.70;99.90;-5.90;101496;;;;580599;244;24109;-70
2022/12/19 09:56:27;;;;;;;37.57;22.80;;;-4.70;99.90;-5.90;101494;;;;576271;246;24135;-71
2022/12/19 09:58:58;;;;;;;35.77;22.67;;;-4.70;99.90;-5.90;101500;;;;580814;244;24129;-72
2022/12/19 10:01:26;;;;;;;38.43;19.70;;;-4.70;99.90;-5.90;101489;;;;571105;246;24096;-72
2022/12/19 10:04:00;;;;;;;43.00;22.47;;;-4.60;99.90;-5.90;101485;;;;581016;244;24121;-71
2022/12/19 10:06:31;;;;;;;37.33;23.87;;;-4.60;99.90;-5.90;101474;;;;580509;246;24130;-73
2022/12/19 10:08:56;;;;;;;42.83;24.13;;;-4.60;99.90;-5.90;101465;;;;581803;241;24092;-72
2022/12/19 10:12:07;;;;;;;37.13;21.70;;;-4.60;99.90;-5.80;101467;;;;582488;244;24091;-73
2022/12/19 10:14:50;;;;;;;36.73;20.87;;;-4.60;99.90;-5.80;101468;;;;578025;246;24544;-71
2022/12/19 10:17:21;;;;;;;37.80;24.03;;;-4.60;99.90;-5.80;101449;;;;576851;246;24097;-73
2022/12/19 10:20:20;;;;;;;35.83;21.40;;;-4.60;99.90;-5.80;101451;;;;582120;244;24166;-73
2022/12/19 10:23:34;;;;;;;36.43;21.40;;;-4.60;99.90;-5.80;101426;;;;578392;246;24118;-72
2022/12/19 10:26:13;;;;;;;40.77;22.30;;;-4.50;99.90;-5.70;101435;;;;576935;246;24122;-78
2022/12/19 10:28:53;;;;;;;35.00;23.23;;;-4.50;99.90;-5.70;101432;;;;582223;244;25120;-74
2022/12/19 10:31:39;;;;;;;42.27;20.17;;;-4.50;99.90;-5.70;101443;;;;581983;244;24082;-73
2022/12/19 10:34:16;;;;;;;36.17;22.17;;;-4.50;99.90;-5.70;101425;;;;568539;246;24088;-72
2022/12/19 10:36:44;;;;;;;39.40;24.23;;;-4.40;99.90;-5.60;101426;;;;571346;246;24103;-71
2022/12/19 10:39:23;;;;;;;37.20;21.37;;;-4.40;99.90;-5.50;101417;;;;572936;246;24108;-71
2022/12/19 10:41:51;;;;;;;36.50;22.10;;;-4.30;99.90;-5.50;101411;;;;569288;246;24101;-72
2022/12/19 10:44:19;;;;;;;36.30;20.53;;;-4.30;99.90;-5.40;101410;;;;572178;246;24107;-72
2022/12/19 10:46:51;;;;;;;35.57;21.37;;;-4.10;99.90;-5.30;101417;;;;581138;246;24092;-72
2022/12/19 10:49:27;;;;;;;42.37;21.83;;;-4.10;99.90;-5.30;101399;;;;569692;246;25162;-72
2022/12/19 10:51:55;;;;;;;35.73;20.37;;;-4.10;99.90;-5.20;101376;;;;569982;246;24132;-72
2022/12/19 10:54:23;;;;;;;37.87;21.63;;;-4.00;99.90;-5.20;101387;;;;569457;246;24117;-73
2022/12/19 10:56:52;;;;;;;34.77;23.03;;;-4.00;99.90;-5.20;101370;;;;572159;246;24132;-71
2022/12/19 10:59:24;;;;;;;39.27;23.20;;;-4.00;99.90;-5.10;101358;;;;576761;246;24066;-71
2022/12/19 11:01:48;;;;;;;37.53;21.47;;;-3.90;99.90;-5.10;101347;;;;571932;246;24102;-71
2022/12/19 11:04:20;;;;;;;37.30;20.43;;;-3.80;99.90;-5.00;101338;;;;569626;246;25170;-72
2022/12/19 11:07:03;;;;;;;37.77;21.93;;;-3.90;99.90;-5.00;101337;;;;575321;246;24094;-73
2022/12/19 11:09:40;;;;;;;35.43;19.50;;;-3.80;99.90;-5.00;101330;;;;575248;245;24149;-71
2022/12/19 11:12:11;;;;;;;42.17;23.97;;;-3.80;99.90;-5.00;101338;;;;581093;246;24067;-72
2022/12/19 11:14:40;;;;;;;36.37;20.87;;;-3.80;99.90;-4.90;101328;;;;581281;246;24092;-73
2022/12/19 11:17:25;;;;;;;38.50;19.37;;;-3.70;99.90;-4.80;101328;;;;572368;246;24103;-71